createdAt,value
2018-05-06T00:01:26.809Z,16.70
2018-05-06T00:03:53.448Z,16.70
2018-05-06T00:06:20.066Z,16.70
2018-05-06T00:08:46.703Z,16.70
2018-05-06T00:11:18.446Z,16.70
2018-05-06T00:13:45.510Z,16.70
2018-05-06T00:16:12.996Z,16.70
2018-05-06T00:18:40.036Z,16.70
2018-05-06T00:21:07.454Z,16.60
2018-05-06T00:23:34.103Z,16.70
2018-05-06T00:26:01.222Z,16.60
2018-05-06T00:28:27.860Z,16.60
2018-05-06T00:30:54.524Z,16.60
2018-05-06T00:33:21.303Z,16.70
2018-05-06T00:35:47.936Z,16.60
2018-05-06T00:38:14.575Z,16.60
2018-05-06T00:40:43.044Z,16.60
2018-05-06T00:43:09.704Z,16.60
2018-05-06T00:45:36.323Z,16.60
2018-05-06T00:48:02.975Z,16.60
2018-05-06T00:50:29.608Z,16.60
2018-05-06T00:52:56.263Z,16.60
2018-05-06T00:55:22.940Z,16.60
2018-05-06T00:57:49.674Z,16.60
2018-05-06T01:00:16.324Z,16.60
2018-05-06T01:02:42.956Z,16.60
2018-05-06T01:05:09.996Z,16.60
2018-05-06T01:07:37.449Z,16.60
2018-05-06T01:10:04.100Z,16.60
2018-05-06T01:12:30.733Z,16.60
2018-05-06T01:14:57.408Z,16.60
2018-05-06T01:17:24.424Z,16.60
2018-05-06T01:19:51.059Z,16.60
2018-05-06T01:22:18.076Z,16.60
2018-05-06T01:24:44.781Z,16.60
2018-05-06T01:27:11.412Z,16.60
2018-05-06T01:29:38.063Z,16.60
2018-05-06T01:32:04.688Z,16.50
2018-05-06T01:34:31.723Z,16.60
2018-05-06T01:36:58.348Z,16.60
2018-05-06T01:39:26.011Z,16.50
2018-05-06T01:41:53.033Z,16.50
2018-05-06T01:44:19.686Z,16.50
2018-05-06T01:46:46.707Z,16.50
2018-05-06T01:49:13.767Z,16.50
2018-05-06T01:51:40.821Z,16.50
2018-05-06T01:54:07.440Z,16.50
2018-05-06T01:56:34.091Z,16.50
2018-05-06T01:59:00.720Z,16.50
2018-05-06T02:01:27.405Z,16.50
2018-05-06T02:03:54.466Z,16.50
2018-05-06T02:06:21.145Z,16.50
2018-05-06T02:08:47.883Z,16.50
2018-05-06T02:11:14.940Z,16.50
2018-05-06T02:13:41.756Z,16.50
2018-05-06T02:16:08.409Z,16.50
2018-05-06T02:18:35.082Z,16.50
2018-05-06T02:21:01.720Z,16.50
2018-05-06T02:23:30.639Z,16.50
2018-05-06T02:25:58.049Z,16.50
2018-05-06T02:28:25.538Z,16.50
2018-05-06T02:30:52.939Z,16.50
2018-05-06T02:33:19.570Z,16.50
2018-05-06T02:35:46.220Z,16.50
2018-05-06T02:38:12.848Z,16.50
2018-05-06T02:40:39.492Z,16.50
2018-05-06T02:43:07.336Z,16.50
2018-05-06T04:07:51.148Z,16.30
2018-05-06T04:10:18.169Z,16.30
2018-05-06T04:12:44.809Z,16.30
2018-05-06T04:15:11.824Z,16.30
2018-05-06T04:17:39.557Z,16.30
2018-05-06T04:20:06.199Z,16.30
2018-05-06T04:22:33.275Z,16.30
2018-05-06T04:24:59.925Z,16.30
2018-05-06T04:27:26.652Z,16.30
2018-05-06T04:29:53.292Z,16.30
2018-05-06T04:32:24.625Z,16.30
2018-05-06T04:34:52.103Z,16.30
2018-05-06T04:37:19.546Z,16.30
2018-05-06T04:39:46.236Z,16.30
2018-05-06T04:42:18.539Z,16.30
2018-05-06T04:44:45.611Z,16.30
2018-05-06T04:47:18.589Z,16.30
2018-05-06T04:49:45.232Z,16.30
2018-05-06T04:52:11.853Z,16.30
2018-05-06T04:54:39.318Z,16.30
2018-05-06T04:57:06.570Z,16.30
2018-05-06T04:59:33.261Z,16.30
2018-05-06T05:02:00.152Z,16.30
2018-05-06T05:04:36.133Z,16.30
2018-05-06T05:07:06.624Z,16.30
2018-05-06T05:09:33.709Z,16.30
2018-05-06T05:12:00.324Z,16.30
2018-05-06T05:14:30.647Z,16.30
2018-05-06T05:17:06.073Z,16.30
2018-05-06T05:19:32.737Z,16.30
2018-05-06T05:21:59.364Z,16.30
2018-05-06T05:24:26.000Z,16.30
2018-05-06T05:26:53.448Z,16.40
2018-05-06T05:29:20.084Z,16.40
2018-05-06T05:31:47.473Z,16.40
2018-05-06T05:34:14.577Z,16.40
2018-05-06T05:36:41.237Z,16.40
2018-05-06T05:39:08.675Z,16.40
2018-05-06T05:41:35.327Z,16.40
2018-05-06T05:44:02.775Z,16.40
2018-05-06T05:46:29.419Z,16.50
2018-05-06T05:48:56.448Z,16.50
2018-05-06T05:51:24.592Z,16.50
2018-05-06T05:53:51.211Z,16.50
2018-05-06T05:56:17.854Z,16.50
2018-05-06T05:58:44.481Z,16.50
2018-05-06T06:01:11.122Z,16.50
2018-05-06T06:03:42.623Z,16.50
2018-05-06T06:06:09.271Z,16.50
2018-05-06T06:08:35.898Z,16.50
2018-05-06T06:11:02.547Z,16.50
2018-05-06T06:13:29.170Z,16.50
2018-05-06T06:15:56.652Z,16.50
2018-05-06T06:18:23.279Z,16.50
2018-05-06T06:20:50.323Z,16.50
2018-05-06T06:23:16.937Z,16.50
2018-05-06T06:25:44.011Z,16.50
2018-05-06T06:28:10.642Z,16.50
2018-05-06T06:30:37.300Z,16.50
2018-05-06T06:33:06.611Z,16.50
2018-05-06T06:35:33.247Z,16.50
2018-05-06T06:37:59.924Z,16.50
2018-05-06T06:40:26.944Z,16.50
2018-05-06T06:42:53.583Z,16.50
2018-05-06T06:45:20.968Z,16.50
2018-05-06T06:47:47.630Z,16.50
2018-05-06T06:50:14.666Z,16.50
2018-05-06T06:52:42.184Z,16.50
2018-05-06T06:55:09.212Z,16.50
2018-05-06T06:57:48.374Z,16.60
2018-05-06T07:00:15.004Z,16.60
2018-05-06T07:02:41.650Z,16.60
2018-05-06T07:05:18.240Z,16.50
2018-05-06T07:07:48.576Z,16.50
2018-05-06T07:10:15.233Z,16.50
2018-05-06T07:12:41.864Z,16.50
2018-05-06T07:15:09.290Z,16.50
2018-05-06T07:17:35.950Z,16.50
2018-05-06T07:20:02.572Z,16.50
2018-05-06T07:22:30.037Z,16.50
2018-05-06T07:25:00.548Z,16.50
2018-05-06T07:27:27.185Z,16.60
2018-05-06T07:29:54.316Z,16.50
2018-05-06T07:32:20.940Z,16.60
2018-05-06T07:34:47.591Z,16.60
2018-05-06T07:37:14.608Z,16.60
2018-05-06T07:39:41.636Z,16.60
2018-05-06T07:42:08.255Z,16.50
2018-05-06T07:44:34.899Z,16.60
2018-05-06T07:47:01.959Z,16.60
2018-05-06T07:49:28.592Z,16.60
2018-05-06T07:51:55.607Z,16.60
2018-05-06T07:54:24.957Z,16.60
2018-05-06T07:56:54.632Z,16.60
2018-05-06T07:59:22.121Z,16.60
2018-05-06T08:01:49.515Z,16.60
2018-05-06T08:04:16.559Z,16.60
2018-05-06T08:06:43.629Z,16.60
2018-05-06T08:09:10.249Z,16.60
2018-05-06T08:11:36.902Z,16.60
2018-05-06T08:14:03.527Z,16.60
2018-05-06T08:16:30.728Z,16.60
2018-05-06T08:18:57.627Z,16.60
2018-05-06T08:21:24.676Z,16.60
2018-05-06T08:23:51.357Z,16.60
2018-05-06T08:26:17.989Z,16.60
2018-05-06T08:28:44.652Z,16.60
2018-05-06T08:31:11.333Z,16.60
2018-05-06T08:38:43.572Z,16.60
2018-05-06T08:41:10.207Z,16.60
2018-05-06T08:43:36.820Z,16.60
2018-05-06T08:46:03.489Z,16.60
2018-05-06T08:48:34.820Z,16.60
2018-05-06T08:51:04.765Z,16.60
2018-05-06T08:53:31.792Z,16.70
2018-05-06T08:55:58.432Z,16.70
2018-05-06T08:58:25.106Z,16.70
2018-05-06T09:00:52.721Z,16.70
2018-05-06T09:03:19.776Z,16.70
2018-05-06T09:05:46.401Z,16.70
2018-05-06T09:08:22.453Z,16.70
2018-05-06T09:10:49.092Z,16.70
2018-05-06T09:13:15.742Z,16.70
2018-05-06T09:15:43.174Z,16.70
2018-05-06T09:18:09.884Z,16.70
2018-05-06T09:20:36.517Z,16.70
2018-05-06T09:23:03.800Z,16.70
2018-05-06T09:25:30.482Z,16.70
2018-05-06T09:27:57.495Z,16.70
2018-05-06T09:30:24.219Z,16.70
2018-05-06T09:32:51.293Z,16.70
2018-05-06T09:35:22.876Z,16.70
2018-05-06T09:37:49.611Z,16.70
2018-05-06T09:40:16.995Z,16.70
2018-05-06T09:42:44.400Z,16.70
2018-05-06T09:45:11.064Z,16.70
2018-05-06T09:47:37.777Z,16.70
2018-05-06T09:50:04.341Z,16.70
2018-05-06T09:52:31.085Z,16.80
2018-05-06T09:54:57.788Z,16.80
2018-05-06T09:57:24.476Z,16.80
2018-05-06T09:59:51.501Z,16.80
2018-05-06T10:02:18.537Z,16.80
2018-05-06T10:04:45.207Z,16.80
2018-05-06T10:07:11.903Z,16.80
2018-05-06T10:09:38.635Z,16.80
2018-05-06T10:12:05.260Z,16.80
2018-05-06T10:14:32.309Z,16.80
2018-05-06T10:16:58.940Z,16.90
2018-05-06T10:19:25.585Z,16.90
2018-05-06T10:21:52.216Z,16.90
2018-05-06T10:24:18.922Z,16.90
2018-05-06T10:26:46.911Z,16.90
2018-05-06T10:29:14.000Z,16.90
2018-05-06T10:31:41.054Z,16.90
2018-05-06T10:34:10.969Z,16.90
2018-05-06T10:36:37.986Z,16.90
2018-05-06T10:39:04.764Z,16.90
2018-05-06T10:41:31.453Z,16.90
2018-05-06T10:43:58.126Z,16.90
2018-05-06T10:46:24.748Z,16.90
2018-05-06T10:48:51.809Z,16.90
2018-05-06T10:51:19.228Z,16.90
2018-05-06T10:53:46.263Z,17.00
2018-05-06T10:56:12.907Z,17.00
2018-05-06T10:58:39.528Z,16.90
2018-05-06T11:01:06.600Z,17.00
2018-05-06T11:03:33.251Z,17.00
2018-05-06T11:05:59.889Z,17.00
2018-05-06T11:08:28.978Z,17.00
2018-05-06T11:10:56.059Z,17.00
2018-05-06T11:13:23.098Z,17.00
2018-05-06T11:15:49.770Z,17.00
2018-05-06T11:18:16.404Z,17.00
2018-05-06T11:20:43.445Z,17.00
2018-05-06T11:23:10.074Z,17.00
2018-05-06T11:25:37.125Z,17.00
2018-05-06T11:28:04.940Z,17.00
2018-05-06T11:30:31.602Z,17.00
2018-05-06T11:32:58.234Z,17.00
2018-05-06T11:35:24.878Z,17.00
2018-05-06T11:37:51.901Z,17.00
2018-05-06T11:40:18.545Z,17.00
2018-05-06T11:42:45.195Z,17.00
2018-05-06T11:45:11.989Z,17.00
2018-05-06T11:47:39.051Z,17.00
2018-05-06T11:50:05.688Z,17.00
2018-05-06T11:52:32.744Z,17.00
2018-05-06T11:54:59.428Z,17.00
2018-05-06T11:57:26.465Z,17.00
2018-05-06T11:59:53.090Z,17.10
2018-05-06T12:02:19.785Z,17.10
2018-05-06T12:04:46.399Z,17.10
2018-05-06T12:07:13.447Z,17.10
2018-05-06T12:09:40.098Z,17.10
2018-05-06T12:12:06.964Z,17.10
2018-05-06T12:14:33.541Z,17.10
2018-05-06T12:17:00.588Z,17.10
2018-05-06T12:19:28.999Z,17.10
2018-05-06T12:21:55.714Z,17.10
2018-05-06T12:24:22.480Z,17.10
2018-05-06T12:26:49.145Z,17.10
2018-05-06T12:29:15.770Z,17.10
2018-05-06T12:31:43.214Z,17.10
2018-05-06T12:34:09.861Z,17.10
2018-05-06T12:36:36.504Z,17.20
2018-05-06T12:39:05.017Z,17.20
2018-05-06T12:41:32.404Z,17.20
2018-05-06T12:43:59.899Z,17.20
2018-05-06T12:46:26.532Z,17.20
2018-05-06T12:48:53.177Z,17.20
2018-05-06T12:51:19.809Z,17.20
2018-05-06T12:53:46.452Z,17.20
2018-05-06T12:56:16.972Z,17.20
2018-05-06T12:58:43.639Z,17.20
2018-05-06T13:01:10.731Z,17.20
2018-05-06T13:03:40.982Z,17.20
2018-05-06T13:06:07.653Z,17.20
2018-05-06T13:08:34.308Z,17.30
2018-05-06T13:11:00.927Z,17.30
2018-05-06T13:13:27.563Z,17.30
2018-05-06T13:15:54.219Z,17.30
2018-05-06T13:18:20.878Z,17.30
2018-05-06T13:20:47.908Z,17.30
2018-05-06T13:23:16.919Z,17.30
2018-05-06T13:25:43.984Z,17.30
2018-05-06T13:28:10.600Z,17.30
2018-05-06T13:30:37.258Z,17.30
2018-05-06T13:33:03.884Z,17.30
2018-05-06T13:35:30.542Z,17.30
2018-05-06T13:37:57.608Z,17.30
2018-05-06T13:40:24.337Z,17.30
2018-05-06T13:42:51.724Z,17.30
2018-05-06T13:45:18.428Z,17.30
2018-05-06T13:47:45.554Z,17.30
2018-05-06T13:50:12.288Z,17.40
2018-05-06T13:52:39.241Z,17.40
2018-05-06T13:55:06.692Z,17.40
2018-05-06T13:57:33.320Z,17.40
2018-05-06T14:00:00.020Z,17.40
2018-05-06T14:02:26.639Z,17.40
2018-05-06T14:04:53.343Z,17.40
2018-05-06T14:07:20.481Z,17.40
2018-05-06T14:09:47.141Z,17.40
2018-05-06T14:12:13.770Z,17.40
2018-05-06T14:14:40.406Z,17.40
2018-05-06T14:17:07.040Z,17.50
2018-05-06T14:19:34.128Z,17.50
2018-05-06T14:22:00.800Z,17.50
2018-05-06T14:24:28.980Z,17.50
2018-05-06T14:26:55.711Z,17.50
2018-05-06T14:29:23.079Z,17.60
2018-05-06T14:31:49.753Z,17.60
2018-05-06T14:34:16.411Z,17.60
2018-05-06T14:36:43.049Z,17.60
2018-05-06T14:39:11.067Z,17.60
2018-05-06T14:41:38.531Z,17.70
2018-05-06T14:44:05.959Z,17.70
2018-05-06T14:46:32.624Z,17.70
2018-05-06T14:48:59.649Z,17.70
2018-05-06T14:51:26.343Z,17.70
2018-05-06T14:53:53.768Z,17.70
2018-05-06T14:56:20.852Z,17.70
2018-05-06T14:58:47.571Z,17.70
2018-05-06T15:01:14.150Z,17.70
2018-05-06T15:03:40.794Z,17.80
2018-05-06T15:06:07.540Z,17.80
2018-05-06T15:08:34.197Z,17.80
2018-05-06T15:11:05.117Z,17.80
2018-05-06T15:13:31.775Z,17.80
2018-05-06T15:15:59.232Z,17.80
2018-05-06T15:18:25.908Z,17.90
2018-05-06T15:20:53.096Z,17.90
2018-05-06T15:23:19.764Z,17.90
2018-05-06T15:25:46.391Z,17.90
2018-05-06T15:28:13.441Z,17.90
2018-05-06T15:30:40.532Z,17.90
2018-05-06T15:33:07.177Z,18.00
2018-05-06T15:35:34.967Z,18.00
2018-05-06T15:38:01.641Z,18.00
2018-05-06T15:40:28.263Z,18.00
2018-05-06T15:42:54.888Z,18.00
2018-05-06T15:45:21.540Z,18.00
2018-05-06T15:47:48.163Z,18.00
2018-05-06T15:50:14.913Z,18.00
2018-05-06T15:52:41.856Z,18.00
2018-05-06T15:55:08.517Z,18.10
2018-05-06T15:57:35.557Z,18.10
2018-05-06T16:00:10.597Z,18.10
2018-05-06T16:02:37.288Z,18.10
2018-05-06T16:05:03.933Z,18.10
2018-05-06T16:07:30.955Z,18.10
2018-05-06T16:09:57.588Z,18.10
2018-05-06T16:12:24.316Z,18.10
2018-05-06T16:14:51.348Z,18.20
2018-05-06T16:17:17.988Z,18.20
2018-05-06T16:19:45.444Z,18.20
2018-05-06T16:22:12.065Z,18.20
2018-05-06T16:24:39.144Z,18.20
2018-05-06T16:27:05.772Z,18.20
2018-05-06T16:29:32.462Z,18.20
2018-05-06T16:31:59.048Z,18.30
2018-05-06T16:34:25.884Z,18.30
2018-05-06T16:36:52.941Z,18.30
2018-05-06T16:39:19.572Z,18.30
2018-05-06T16:41:46.455Z,18.30
2018-05-06T16:44:17.153Z,18.30
2018-05-06T16:46:45.607Z,18.40
2018-05-06T16:49:13.524Z,18.30
2018-05-06T16:51:46.723Z,18.30
2018-05-06T16:54:13.349Z,18.30
2018-05-06T16:56:39.992Z,18.40
2018-05-06T16:59:06.630Z,18.40
2018-05-06T17:01:33.308Z,18.40
2018-05-06T17:04:00.044Z,18.40
2018-05-06T17:06:26.752Z,18.40
2018-05-06T17:08:53.764Z,18.40
2018-05-06T17:11:23.242Z,18.40
2018-05-06T17:13:49.884Z,18.40
2018-05-06T17:16:16.593Z,18.40
2018-05-06T17:18:43.234Z,18.40
2018-05-06T17:21:11.016Z,18.40
2018-05-06T17:23:37.670Z,18.40
2018-05-06T17:26:04.320Z,18.40
2018-05-06T17:28:30.996Z,18.40
2018-05-06T17:30:58.383Z,18.40
2018-05-06T17:33:25.045Z,18.40
2018-05-06T17:35:53.387Z,18.40
2018-05-06T17:38:20.036Z,18.40
2018-05-06T17:40:47.047Z,18.40
2018-05-06T17:43:13.679Z,18.40
2018-05-06T17:45:40.307Z,18.40
2018-05-06T17:48:07.352Z,18.50
2018-05-06T17:50:34.040Z,18.50
2018-05-06T17:53:00.841Z,18.40
2018-05-06T17:55:27.861Z,18.40
2018-05-06T17:57:55.341Z,18.40
2018-05-06T18:00:21.968Z,18.40
2018-05-06T18:02:49.055Z,18.40
2018-05-06T18:05:15.689Z,18.40
2018-05-06T18:07:42.320Z,18.40
2018-05-06T18:10:11.140Z,18.40
2018-05-06T18:12:37.777Z,18.40
2018-05-06T18:15:05.239Z,18.40
2018-05-06T18:17:31.919Z,18.40
2018-05-06T18:19:58.956Z,18.40
2018-05-06T18:22:25.975Z,18.40
2018-05-06T18:24:52.613Z,18.40
2018-05-06T18:27:19.636Z,18.40
2018-05-06T18:29:46.292Z,18.40
2018-05-06T18:32:12.948Z,18.40
2018-05-06T18:34:39.632Z,18.40
2018-05-06T18:37:06.296Z,18.40
2018-05-06T18:39:33.027Z,18.40
2018-05-06T18:41:59.673Z,18.40
2018-05-06T18:44:26.313Z,18.40
2018-05-06T18:46:52.933Z,18.40
2018-05-06T18:49:19.590Z,18.40
2018-05-06T18:51:47.024Z,18.40
2018-05-06T18:54:13.725Z,18.40
2018-05-06T18:56:40.350Z,18.40
2018-05-06T18:59:07.392Z,18.40
2018-05-06T19:01:34.016Z,18.40
2018-05-06T19:04:00.667Z,18.40
2018-05-06T19:06:27.693Z,18.40
2018-05-06T19:08:59.269Z,18.40
2018-05-06T19:11:25.915Z,18.40
2018-05-06T19:13:52.980Z,18.40
2018-05-06T19:16:19.633Z,18.40
2018-05-06T19:18:46.259Z,18.40
2018-05-06T19:21:12.897Z,18.30
2018-05-06T19:23:40.346Z,18.30
2018-05-06T19:26:06.984Z,18.40
2018-05-06T19:28:33.603Z,18.30
2018-05-06T19:31:00.690Z,18.30
2018-05-06T19:33:27.310Z,18.30
2018-05-06T19:35:53.987Z,18.30
2018-05-06T19:38:20.753Z,18.30
2018-05-06T19:40:48.588Z,18.30
2018-05-06T19:43:15.265Z,18.30
2018-05-06T19:45:42.304Z,18.30
2018-05-06T19:48:09.320Z,18.30
2018-05-06T19:50:35.964Z,18.30
2018-05-06T19:53:02.981Z,18.30
2018-05-06T19:55:30.051Z,18.30
2018-05-06T19:57:56.715Z,18.30
2018-05-06T20:00:23.355Z,18.30
2018-05-06T20:02:49.983Z,18.30
2018-05-06T20:05:16.627Z,18.30
2018-05-06T20:07:43.303Z,18.30
2018-05-06T20:10:11.152Z,18.30
2018-05-06T20:12:37.808Z,18.30
2018-05-06T20:15:04.452Z,18.30
2018-05-06T20:17:31.484Z,18.30
2018-05-06T20:19:58.589Z,18.30
2018-05-06T20:22:25.314Z,18.30
2018-05-06T20:24:52.349Z,18.30
2018-05-06T20:27:18.967Z,18.30
2018-05-06T20:29:45.659Z,18.30
2018-05-06T20:32:12.295Z,18.30
2018-05-06T20:34:39.312Z,18.30
2018-05-06T20:37:06.353Z,18.30
2018-05-06T20:39:34.201Z,18.30
2018-05-06T20:42:00.894Z,18.30
2018-05-06T20:44:27.531Z,18.30
2018-05-06T20:46:54.180Z,18.20
2018-05-06T20:49:21.201Z,18.20
2018-05-06T20:51:48.633Z,18.20
2018-05-06T20:54:15.252Z,18.20
2018-05-06T20:56:41.908Z,18.20
2018-05-06T20:59:09.359Z,18.20
2018-05-06T21:01:36.408Z,18.20
2018-05-06T21:04:03.474Z,18.20
2018-05-06T21:06:30.100Z,18.20
2018-05-06T21:08:56.732Z,18.20
2018-05-06T21:11:23.376Z,18.20
2018-05-06T21:13:50.004Z,18.20
2018-05-06T21:16:17.559Z,18.20
2018-05-06T21:18:44.967Z,18.20
2018-05-06T21:21:12.036Z,18.20
2018-05-06T21:23:41.245Z,18.20
2018-05-06T21:26:08.344Z,18.20
2018-05-06T21:28:35.001Z,18.20
2018-05-06T21:31:02.044Z,18.20
2018-05-06T21:33:28.751Z,18.20
2018-05-06T21:35:55.736Z,18.20
2018-05-06T21:38:22.377Z,18.20
2018-05-06T21:40:48.999Z,18.20
2018-05-06T21:43:15.639Z,18.20
2018-05-06T21:45:42.277Z,18.20
2018-05-06T21:48:09.305Z,18.20
2018-05-06T21:50:36.399Z,18.20
2018-05-06T21:53:02.996Z,18.20
2018-05-06T21:55:30.010Z,18.20
2018-05-06T21:57:56.658Z,18.10
2018-05-06T22:00:23.277Z,18.20
2018-05-06T22:02:49.917Z,18.10
2018-05-06T22:05:16.577Z,18.10
2018-05-06T22:07:43.642Z,18.10
2018-05-06T22:10:10.284Z,18.10
2018-05-06T22:12:36.965Z,18.10
2018-05-06T22:15:03.688Z,18.10
2018-05-06T22:17:30.751Z,18.10
2018-05-06T23:41:59.148Z,17.90
2018-05-06T23:44:26.579Z,17.90
2018-05-06T23:46:53.435Z,17.90
2018-05-06T23:49:20.068Z,17.90
2018-05-06T23:51:46.725Z,17.90
2018-05-06T23:54:14.163Z,17.90
2018-05-06T23:56:41.621Z,17.90
2018-05-06T23:59:08.251Z,17.90
